Time;durP1;ratioP1;P1;durP2;ratioP2;P2;SDS_P1;SDS_P2;PMS_P1;PMS_P2;Temp;Humidity;BMP_temperature;BMP_pressure;BME280_temperature;BME280_humidity;BME280_pressure;Samples;Min_cycle;Max_cycle;Signal;HPM_P1;HPM_P2
2022/11/13 00:01:06;;;;;;;6.72;6.03;;;;;;;7.16;65.16;97703.38;6214945;23;20333;-81
2022/11/13 00:03:34;;;;;;;9.55;6.20;;;;;;;7.07;65.39;97698.97;6214680;23;20017;-81
2022/11/13 00:06:02;;;;;;;8.10;6.47;;;;;;;6.99;65.38;97697.84;6214511;23;20079;-81
2022/11/13 00:08:31;;;;;;;6.60;5.50;;;;;;;6.92;66.07;97691.56;6215062;23;20096;-81
2022/11/13 00:11:01;;;;;;;7.47;5.82;;;;;;;6.94;66.27;97684.47;6215269;23;20020;-81
2022/11/13 00:13:28;;;;;;;8.48;6.53;;;;;;;6.95;66.60;97683.53;6215040;23;20025;-81
2022/11/13 00:15:58;;;;;;;6.63;5.93;;;;;;;6.96;66.63;97672.19;6215460;23;20024;-81
2022/11/13 00:18:26;;;;;;;9.07;5.97;;;;;;;6.99;66.39;97665.91;6214711;23;20027;-81
2022/11/13 00:20:54;;;;;;;8.18;6.10;;;;;;;7.01;66.47;97667.41;6214537;23;20032;-81
2022/11/13 00:23:21;;;;;;;9.77;6.72;;;;;;;7.05;66.63;97661.97;6215148;23;20024;-81
2022/11/13 00:25:50;;;;;;;6.97;5.53;;;;;;;7.09;66.29;97660.75;6214308;23;20020;-81
2022/11/13 00:28:18;;;;;;;6.47;5.75;;;;;;;7.14;67.15;97655.97;6214583;23;20017;-81
2022/11/13 00:30:45;;;;;;;6.85;5.32;;;;;;;7.18;67.61;97647.78;6214779;23;20352;-81
2022/11/13 00:33:13;;;;;;;6.78;5.47;;;;;;;7.21;66.41;97649.28;6214461;23;20024;-81
2022/11/13 00:36:05;;;;;;;6.15;5.35;;;;;;;7.25;67.73;97647.25;6214734;23;20074;-81
2022/11/13 00:38:33;;;;;;;25.07;15.17;;;;;;;7.25;66.54;97642.88;6214346;23;20020;-81
2022/11/13 00:41:02;;;;;;;10.13;7.30;;;;;;;7.28;66.55;97636.59;6215032;23;20728;-81
2022/11/13 00:43:30;;;;;;;6.70;5.05;;;;;;;7.29;66.79;97639.06;6219055;23;20020;-81
2022/11/13 00:45:57;;;;;;;7.07;5.15;;;;;;;7.28;66.74;97640.03;6215881;23;20021;-81
2022/11/13 00:48:25;;;;;;;6.80;5.68;;;;;;;7.29;66.13;97627.88;6215524;23;20017;-81
2022/11/13 00:50:53;;;;;;;6.72;5.38;;;;;;;7.27;66.66;97633.19;6214806;23;20028;-81
2022/11/13 00:53:21;;;;;;;5.72;5.13;;;;;;;7.25;65.64;97622.13;6214911;23;20024;-81
2022/11/13 00:55:49;;;;;;;6.28;5.55;;;;;;;7.20;65.53;97614.75;6216263;23;20023;-81
2022/11/13 00:58:18;;;;;;;5.15;4.65;;;;;;;7.13;65.36;97623.22;6216762;23;20479;-81
2022/11/13 01:00:47;;;;;;;5.45;4.63;;;;;;;7.11;65.89;97604.38;6216933;23;20461;-80
2022/11/13 01:03:17;;;;;;;5.25;4.65;;;;;;;7.11;66.56;97612.97;6216852;23;20020;-81
2022/11/13 01:05:46;;;;;;;5.38;4.65;;;;;;;7.11;65.21;97615.56;6216785;23;20036;-81
2022/11/13 01:08:15;;;;;;;6.40;4.80;;;;;;;7.09;66.12;97614.88;6216429;23;20388;-81
2022/11/13 01:10:45;;;;;;;5.47;4.45;;;;;;;7.10;67.56;97613.09;6216707;23;20031;-81
2022/11/13 01:13:21;;;;;;;5.18;4.68;;;;;;;7.08;65.39;97605.44;6216180;23;20074;-81
2022/11/13 01:15:48;;;;;;;5.10;4.60;;;;;;;7.09;65.67;97601.09;6216756;23;20362;-80
2022/11/13 01:18:16;;;;;;;5.57;4.60;;;;;;;7.10;65.88;97602.72;6216246;23;20096;-81
2022/11/13 01:20:43;;;;;;;5.45;4.88;;;;;;;7.12;65.70;97603.41;6216073;23;20017;-81
2022/11/13 01:23:11;;;;;;;5.18;4.47;;;;;;;7.13;65.60;97592.06;6216985;23;20030;-81
2022/11/13 01:25:38;;;;;;;5.88;5.28;;;;;;;7.11;66.18;97596.59;6216971;23;20021;-81
2022/11/13 01:28:06;;;;;;;8.00;5.30;;;;;;;7.12;65.90;97595.63;6226780;23;20024;-80
2022/11/13 01:30:35;;;;;;;6.03;4.38;;;;;;;7.11;66.14;97589.63;6242173;23;20020;-80
2022/11/13 01:33:02;;;;;;;5.78;4.47;;;;;;;7.15;66.51;97590.97;6242193;23;20103;-81
2022/11/13 01:35:30;;;;;;;7.47;6.15;;;;;;;7.19;65.99;97586.31;6226403;23;20047;-81
2022/11/13 01:37:57;;;;;;;6.20;4.68;;;;;;;7.19;66.74;97589.75;6216927;23;20020;-81
2022/11/13 01:40:25;;;;;;;5.43;4.85;;;;;;;7.22;67.17;97586.06;6216432;23;20021;-81
2022/11/13 01:42:52;;;;;;;5.72;4.68;;;;;;;7.25;66.58;97577.19;6216600;23;20028;-81
2022/11/13 01:45:59;;;;;;;5.95;4.97;;;;;;;7.28;66.69;97575.16;6216396;23;20032;-81
2022/11/13 01:48:31;;;;;;;6.40;4.93;;;;;;;7.25;65.54;97575.41;6216363;23;20051;-81
2022/11/13 01:50:58;;;;;;;5.63;4.60;;;;;;;7.24;65.43;97558.22;6216609;23;20024;-82
2022/11/13 01:53:28;;;;;;;7.25;5.07;;;;;;;7.25;65.26;97557.25;6216643;23;20020;-82
2022/11/13 01:55:56;;;;;;;6.35;5.05;;;;;;;7.24;65.97;97547.81;6216418;23;20031;-81
2022/11/13 01:58:24;;;;;;;6.13;4.82;;;;;;;7.26;66.19;97540.72;6215905;23;20031;-81
2022/11/13 02:00:53;;;;;;;5.45;4.30;;;;;;;7.29;66.11;97535.25;6216542;23;20108;-81
2022/11/13 02:03:21;;;;;;;5.22;4.53;;;;;;;7.26;65.21;97532.94;6218618;23;20024;-81
2022/11/13 02:05:48;;;;;;;5.60;4.43;;;;;;;7.23;65.63;97540.97;6217162;23;20104;-81
2022/11/13 02:08:16;;;;;;;6.63;4.80;;;;;;;7.22;66.16;97534.16;6215531;23;20017;-81
2022/11/13 02:10:44;;;;;;;6.22;4.60;;;;;;;7.23;66.10;97525.41;6216251;23;20036;-81
2022/11/13 02:13:12;;;;;;;5.35;4.82;;;;;;;7.25;66.49;97523.50;6216021;23;20035;-81
2022/11/13 02:15:42;;;;;;;5.55;4.65;;;;;;;7.25;66.45;97518.31;6216423;23;20021;-81
2022/11/13 02:18:11;;;;;;;5.38;4.40;;;;;;;7.24;64.97;97516.69;6225815;23;20024;-79
2022/11/13 02:20:53;;;;;;;5.80;4.65;;;;;;;7.26;67.37;97507.00;6240781;23;20021;-79
2022/11/13 02:23:28;;;;;;;6.00;4.63;;;;;;;7.28;65.08;97507.66;6241783;23;20048;-80
2022/11/13 02:25:58;;;;;;;7.80;5.28;;;;;;;7.25;64.82;97500.16;6239625;23;20021;-81
2022/11/13 02:28:25;;;;;;;5.70;4.28;;;;;;;7.26;65.08;97501.78;6230164;23;20017;-80
2022/11/13 02:30:53;;;;;;;5.15;4.32;;;;;;;7.26;64.36;97503.56;6218578;23;20062;-80
2022/11/13 02:33:24;;;;;;;5.95;5.10;;;;;;;7.26;65.50;97495.75;6217285;23;20024;-81
2022/11/13 02:35:52;;;;;;;6.57;5.63;;;;;;;7.26;64.20;97491.41;6217277;23;20025;-80
2022/11/13 02:38:20;;;;;;;5.90;4.97;;;;;;;7.26;65.67;97494.00;6216414;23;20025;-80
2022/11/13 02:40:47;;;;;;;5.57;4.45;;;;;;;7.28;64.60;97486.91;6216360;23;20357;-81
2022/11/13 02:43:16;;;;;;;5.75;4.65;;;;;;;7.28;64.27;97494.69;6216535;23;20024;-81
2022/11/13 02:45:44;;;;;;;5.40;4.78;;;;;;;7.29;64.58;97488.53;6215981;23;20032;-80
2022/11/13 02:48:11;;;;;;;6.30;4.65;;;;;;;7.29;64.06;97483.34;6215584;23;20361;-81
2022/11/13 02:50:39;;;;;;;6.93;4.93;;;;;;;7.29;63.65;97485.94;6216099;23;20017;-82
2022/11/13 02:53:07;;;;;;;6.53;4.75;;;;;;;7.27;64.18;97487.03;6216230;23;20465;-81
2022/11/13 02:55:35;;;;;;;6.55;4.70;;;;;;;7.27;64.13;97482.66;6216202;23;20028;-81
2022/11/13 02:58:02;;;;;;;5.70;5.10;;;;;;;7.26;63.35;97483.63;6215979;23;20021;-82
2022/11/13 03:00:31;;;;;;;6.43;5.20;;;;;;;7.26;65.32;97478.44;6215637;23;20027;-80
2022/11/13 03:02:59;;;;;;;6.38;4.97;;;;;;;7.27;64.17;97482.66;6216130;23;20021;-81
2022/11/13 03:05:27;;;;;;;6.57;5.05;;;;;;;7.29;63.95;97482.53;6216193;23;20021;-81
2022/11/13 03:07:54;;;;;;;6.97;5.07;;;;;;;7.25;63.65;97476.78;6215092;23;20020;-80
2022/11/13 03:10:22;;;;;;;6.57;5.28;;;;;;;7.23;63.85;97478.69;6215836;23;20116;-81
2022/11/13 03:12:49;;;;;;;7.15;5.30;;;;;;;7.25;64.20;97476.78;6215501;23;20092;-81
2022/11/13 03:15:17;;;;;;;5.82;5.18;;;;;;;7.28;63.96;97473.09;6219624;23;20024;-81
2022/11/13 03:17:46;;;;;;;7.05;5.47;;;;;;;7.26;64.09;97470.66;6217512;23;20083;-80
2022/11/13 03:20:13;;;;;;;7.55;5.43;;;;;;;7.23;63.15;97469.13;6226662;22;20453;-77
2022/11/13 03:22:41;;;;;;;6.80;5.10;;;;;;;7.21;63.88;97470.22;6225354;23;20028;-78
2022/11/13 03:25:09;;;;;;;6.25;5.65;;;;;;;7.20;63.99;97468.63;6215478;23;20021;-78
2022/11/13 03:27:37;;;;;;;7.55;5.63;;;;;;;7.17;63.40;97468.88;6215756;23;20196;-77
2022/11/13 03:30:06;;;;;;;7.03;5.82;;;;;;;7.16;63.29;97469.84;6215213;23;20017;-77
2022/11/13 03:32:34;;;;;;;6.57;5.40;;;;;;;7.18;63.00;97473.13;6215283;23;20352;-78
2022/11/13 03:35:03;;;;;;;6.63;5.30;;;;;;;7.20;63.72;97473.81;6214898;23;20486;-80
2022/11/13 03:37:31;;;;;;;6.78;5.15;;;;;;;7.21;63.67;97470.22;6215129;23;20055;-80
2022/11/13 03:39:59;;;;;;;5.97;4.85;;;;;;;7.25;63.70;97466.41;6214858;23;20044;-80
2022/11/13 03:42:26;;;;;;;6.10;5.00;;;;;;;7.20;62.74;97458.22;6215048;23;20027;-80
2022/11/13 03:44:54;;;;;;;7.53;5.72;;;;;;;7.16;63.90;97459.47;6215213;23;20667;-80
2022/11/13 03:47:21;;;;;;;6.65;5.50;;;;;;;7.09;63.90;97453.19;6214542;23;20028;-80
2022/11/13 03:49:49;;;;;;;7.05;5.82;;;;;;;7.11;64.87;97448.69;6214541;23;20016;-80
2022/11/13 03:52:18;;;;;;;7.32;5.32;;;;;;;7.14;65.19;97448.41;6224465;23;20048;-80
2022/11/13 03:54:45;;;;;;;6.88;5.65;;;;;;;7.16;64.96;97441.31;6232081;23;20035;-80
2022/11/13 03:57:13;;;;;;;6.60;5.40;;;;;;;7.16;64.73;97446.50;6224011;23;20032;-80
2022/11/13 03:59:40;;;;;;;5.78;4.75;;;;;;;7.15;64.13;97455.22;6215102;23;20020;-80
2022/11/13 04:02:08;;;;;;;6.75;5.28;;;;;;;7.09;63.12;97441.03;6215363;23;20028;-80
2022/11/13 04:04:35;;;;;;;5.68;5.13;;;;;;;7.01;62.88;97438.31;6215190;23;20056;-80
2022/11/13 04:07:03;;;;;;;6.80;5.65;;;;;;;6.99;64.21;97443.63;6214582;23;20551;-80
2022/11/13 04:09:32;;;;;;;6.97;5.47;;;;;;;6.97;63.48;97442.13;6214161;23;20052;-80
2022/11/13 04:11:59;;;;;;;6.57;5.40;;;;;;;6.94;62.86;97432.06;6214911;23;20017;-79
2022/11/13 04:14:27;;;;;;;7.15;5.82;;;;;;;6.89;63.39;97440.25;6214589;23;20024;-80
2022/11/13 04:16:55;;;;;;;7.03;5.60;;;;;;;6.85;63.21;97432.88;6214289;23;20020;-80
2022/11/13 04:19:22;;;;;;;8.00;6.13;;;;;;;6.82;63.55;97431.34;6214064;23;20021;-80
2022/11/13 04:21:50;;;;;;;7.68;5.47;;;;;;;6.84;64.17;97420.84;6214347;23;20017;-80
2022/11/13 04:24:17;;;;;;;6.75;5.75;;;;;;;6.86;64.25;97417.16;6214662;23;20021;-80
2022/11/13 04:26:46;;;;;;;6.90;5.38;;;;;;;6.87;63.90;97421.41;6214604;23;20027;-80
2022/11/13 04:29:14;;;;;;;8.35;6.25;;;;;;;6.86;63.52;97414.56;6214449;23;20080;-79
2022/11/13 04:31:41;;;;;;;6.60;5.68;;;;;;;6.79;63.34;97408.31;6218227;23;20016;-80
2022/11/13 04:34:09;;;;;;;7.07;4.97;;;;;;;6.75;63.36;97414.72;6217881;23;20028;-80
2022/11/13 04:36:36;;;;;;;7.15;5.50;;;;;;;6.73;63.42;97406.25;6217723;23;20031;-80
2022/11/13 04:39:04;;;;;;;6.30;5.45;;;;;;;6.75;64.23;97401.75;6216931;23;20027;-80
2022/11/13 04:44:23;;;;;;;7.28;5.65;;;;;;;6.69;63.55;97403.16;6217805;23;20623;-80
2022/11/13 04:46:50;;;;;;;7.03;5.25;;;;;;;6.66;63.80;97387.84;6217488;23;20465;-79
2022/11/13 04:49:18;;;;;;;6.90;5.25;;;;;;;6.63;63.33;97395.09;6217349;23;20031;-80
2022/11/13 04:51:45;;;;;;;9.20;6.28;;;;;;;6.57;63.60;97384.31;6217660;23;20075;-80
2022/11/13 04:54:13;;;;;;;8.38;5.50;;;;;;;6.52;63.56;97381.31;6217911;23;20021;-80
2022/11/13 04:56:41;;;;;;;6.40;5.43;;;;;;;6.48;63.50;97374.75;6217590;23;20039;-80
2022/11/13 04:59:08;;;;;;;7.75;5.28;;;;;;;6.49;63.74;97378.97;6217195;23;20396;-80
2022/11/13 05:01:37;;;;;;;7.00;5.30;;;;;;;6.49;63.68;97381.56;6217524;23;20021;-80
2022/11/13 05:04:05;;;;;;;6.90;5.43;;;;;;;6.48;64.82;97377.34;6217728;23;20026;-77
2022/11/13 05:06:33;;;;;;;8.38;5.53;;;;;;;6.51;64.43;97379.66;6218056;23;20020;-77
2022/11/13 05:09:00;;;;;;;8.13;5.50;;;;;;;6.51;63.66;97373.66;6217540;23;20028;-77
2022/11/13 05:11:28;;;;;;;6.70;4.82;;;;;;;6.49;63.97;97375.56;6218197;23;20099;-77
2022/11/13 05:13:58;;;;;;;7.35;5.65;;;;;;;6.49;63.67;97371.19;6218388;23;20032;-77
2022/11/13 05:16:30;;;;;;;7.22;5.53;;;;;;;6.52;63.92;97381.31;6218389;23;20020;-79
2022/11/13 05:18:59;;;;;;;5.93;4.78;;;;;;;6.56;64.36;97382.69;6217208;23;20104;-79
2022/11/13 05:21:26;;;;;;;6.03;4.72;;;;;;;6.60;64.36;97371.09;6217090;23;20020;-80
2022/11/13 05:23:54;;;;;;;5.20;4.38;;;;;;;6.67;64.74;97378.28;6217869;23;20027;-80
2022/11/13 05:26:21;;;;;;;6.72;5.15;;;;;;;6.69;63.91;97373.78;6217309;23;20023;-80
2022/11/13 05:28:49;;;;;;;6.45;4.82;;;;;;;6.68;64.30;97370.38;6218262;23;20023;-80
2022/11/13 05:31:17;;;;;;;6.00;5.03;;;;;;;6.67;63.66;97362.72;6217722;23;20020;-80
2022/11/13 05:33:45;;;;;;;6.80;5.13;;;;;;;6.68;64.34;97366.97;6217683;23;20025;-80
2022/11/13 05:36:15;;;;;;;5.15;4.22;;;;;;;6.71;63.28;97362.34;6217821;23;20021;-80
2022/11/13 05:38:43;;;;;;;9.57;6.07;;;;;;;6.74;64.47;97361.25;6217107;23;20021;-80
2022/11/13 05:41:13;;;;;;;7.32;5.53;;;;;;;6.80;64.56;97363.28;6216475;23;20063;-79
2022/11/13 05:43:41;;;;;;;7.95;4.78;;;;;;;6.80;64.22;97365.88;6215700;23;20484;-80
2022/11/13 05:46:11;;;;;;;7.50;4.85;;;;;;;6.79;63.99;97366.81;6215842;23;20460;-80
2022/11/13 05:48:40;;;;;;;6.40;5.05;;;;;;;6.78;64.22;97366.00;6215994;23;20027;-80
2022/11/13 05:51:13;;;;;;;6.05;5.30;;;;;;;6.79;65.45;97364.22;6215304;23;20519;-79
2022/11/13 05:53:43;;;;;;;5.88;4.78;;;;;;;6.83;64.84;97363.00;6216734;23;20043;-80
2022/11/13 05:56:13;;;;;;;6.90;5.05;;;;;;;6.86;64.61;97354.91;6216160;23;20492;-80
2022/11/13 05:58:42;;;;;;;7.07;5.40;;;;;;;6.86;64.40;97348.94;6215989;23;20024;-80
2022/11/13 06:01:11;;;;;;;8.23;4.93;;;;;;;6.85;64.23;97349.91;6216322;23;20020;-77
2022/11/13 06:03:39;;;;;;;6.60;5.22;;;;;;;6.87;64.32;97353.16;6216139;23;20051;-78
2022/11/13 06:06:10;;;;;;;6.30;5.00;;;;;;;6.88;64.36;97350.41;6216768;23;20055;-78
2022/11/13 06:08:38;;;;;;;6.38;5.40;;;;;;;6.91;64.71;97347.56;6215751;23;20017;-78
2022/11/13 06:11:10;;;;;;;6.90;5.50;;;;;;;6.94;64.47;97343.88;6216009;23;20028;-78
2022/11/13 06:13:39;;;;;;;5.93;5.18;;;;;;;6.97;64.80;97349.56;6216591;23;20124;-77
2022/11/13 06:16:09;;;;;;;7.07;5.40;;;;;;;6.94;63.64;97352.44;6215965;23;20334;-78
2022/11/13 06:18:38;;;;;;;6.68;5.43;;;;;;;6.90;64.19;97345.09;6215548;23;20027;-77
2022/11/13 06:21:08;;;;;;;7.07;5.90;;;;;;;6.88;64.45;97355.59;6215349;23;20360;-77
2022/11/13 06:23:37;;;;;;;7.75;5.57;;;;;;;6.87;64.47;97361.75;6216290;23;20020;-77
2022/11/13 06:26:08;;;;;;;8.13;6.07;;;;;;;6.89;65.92;97356.44;6216118;23;20103;-77
2022/11/13 06:28:37;;;;;;;8.85;6.03;;;;;;;6.93;65.57;97357.78;6215057;23;20108;-78
2022/11/13 06:31:05;;;;;;;6.75;5.57;;;;;;;6.96;65.86;97354.91;6215649;23;20020;-77
2022/11/13 06:33:33;;;;;;;7.43;5.55;;;;;;;6.99;66.01;97355.44;6215872;23;20024;-77
2022/11/13 06:36:01;;;;;;;8.13;5.80;;;;;;;7.03;66.62;97352.56;6215804;23;20021;-78
2022/11/13 06:38:31;;;;;;;8.35;5.35;;;;;;;7.03;65.02;97348.19;6215035;23;20025;-78
2022/11/13 06:40:59;;;;;;;8.45;6.78;;;;;;;7.03;64.76;97350.78;6215333;23;20016;-78
2022/11/13 06:43:28;;;;;;;7.05;6.05;;;;;;;7.03;64.94;97352.56;6215599;23;20025;-77
2022/11/13 06:45:57;;;;;;;6.60;5.05;;;;;;;7.04;64.09;97356.78;6215900;23;20579;-77
2022/11/13 06:48:24;;;;;;;7.03;5.53;;;;;;;7.07;65.49;97353.94;6215577;23;20027;-78
2022/11/13 06:50:53;;;;;;;6.60;5.00;;;;;;;7.10;64.78;97349.25;6215311;23;20028;-77
2022/11/13 06:53:20;;;;;;;6.13;4.75;;;;;;;7.12;64.37;97349.94;6216451;23;20024;-78
2022/11/13 06:55:50;;;;;;;6.95;5.43;;;;;;;7.15;64.70;97347.09;6228384;23;20024;-78
2022/11/13 06:58:17;;;;;;;8.27;6.15;;;;;;;7.18;64.78;97346.78;6231397;23;20427;-77
2022/11/13 07:00:46;;;;;;;7.43;5.82;;;;;;;7.18;63.91;97345.97;6219751;23;20368;-78
2022/11/13 07:03:16;;;;;;;7.63;6.05;;;;;;;7.18;64.62;97336.41;6216116;23;20068;-77
2022/11/13 07:05:44;;;;;;;8.43;5.95;;;;;;;7.19;64.04;97326.84;6215440;23;20491;-78
2022/11/13 07:08:12;;;;;;;6.57;5.38;;;;;;;7.22;64.97;97326.56;6215526;23;20024;-77
2022/11/13 07:10:41;;;;;;;7.70;5.85;;;;;;;7.24;64.55;97324.66;6215953;23;20021;-77
2022/11/13 07:13:09;;;;;;;7.07;5.05;;;;;;;7.22;63.46;97321.38;6215776;23;20107;-77
2022/11/13 07:15:37;;;;;;;7.03;5.18;;;;;;;7.22;63.53;97321.38;6215568;23;20019;-78
2022/11/13 07:18:07;;;;;;;8.02;5.20;;;;;;;7.22;63.99;97311.81;6215373;23;20025;-77
2022/11/13 07:20:34;;;;;;;7.22;5.20;;;;;;;7.21;63.05;97319.72;6215224;23;20341;-78
2022/11/13 07:23:03;;;;;;;7.50;5.70;;;;;;;7.15;62.96;97313.34;6215340;23;20024;-77
2022/11/13 07:25:31;;;;;;;7.00;5.20;;;;;;;7.14;63.46;97310.91;6215273;23;20330;-77
2022/11/13 07:27:59;;;;;;;6.95;4.95;;;;;;;7.17;63.96;97315.78;6215556;23;20024;-77
2022/11/13 07:30:27;;;;;;;8.18;5.75;;;;;;;7.22;63.49;97311.81;6216084;23;20448;-77
2022/11/13 07:32:55;;;;;;;7.43;5.75;;;;;;;7.25;62.95;97300.31;6215811;23;20099;-77
2022/11/13 07:35:23;;;;;;;6.72;5.35;;;;;;;7.25;63.67;97305.50;6214993;23;20028;-77
2022/11/13 07:37:55;;;;;;;8.43;5.15;;;;;;;7.29;63.39;97304.28;6215110;23;20021;-75
2022/11/13 07:40:22;;;;;;;6.05;4.68;;;;;;;7.28;62.52;97294.88;6214654;23;20024;-76
2022/11/13 07:42:56;;;;;;;5.75;4.95;;;;;;;7.31;63.46;97297.16;6214428;23;20349;-76
2022/11/13 07:45:24;;;;;;;5.07;4.45;;;;;;;7.36;63.13;97289.75;6214993;23;20021;-76
2022/11/13 07:47:52;;;;;;;7.47;4.75;;;;;;;7.42;62.95;97296.16;6214597;23;20032;-76
2022/11/13 07:50:19;;;;;;;5.10;4.40;;;;;;;7.47;62.37;97282.75;6215005;23;20027;-76
2022/11/13 07:52:49;;;;;;;5.57;4.18;;;;;;;7.52;61.86;97277.91;6214870;23;20021;-76
2022/11/13 07:55:16;;;;;;;5.05;4.10;;;;;;;7.59;63.54;97279.00;6214840;23;20334;-76
2022/11/13 07:57:44;;;;;;;5.90;4.35;;;;;;;7.65;62.50;97275.78;6214957;23;20028;-75
2022/11/13 08:00:12;;;;;;;6.45;4.68;;;;;;;7.69;63.56;97276.31;6214790;23;20499;-76
2022/11/13 08:02:40;;;;;;;6.55;4.93;;;;;;;7.73;62.09;97265.50;6214885;23;20044;-76
2022/11/13 08:05:07;;;;;;;6.30;4.72;;;;;;;7.76;62.08;97260.00;6214614;23;20108;-78
2022/11/13 08:07:35;;;;;;;6.88;4.68;;;;;;;7.81;62.40;97259.56;6215152;23;20020;-76
2022/11/13 08:10:05;;;;;;;5.90;4.65;;;;;;;7.88;63.01;97259.78;6214574;23;20078;-76
2022/11/13 08:12:32;;;;;;;7.97;5.35;;;;;;;7.92;61.85;97248.94;6214863;23;20032;-76
2022/11/13 08:15:00;;;;;;;9.68;5.65;;;;;;;7.96;61.83;97246.84;6215057;23;20024;-76
2022/11/13 08:17:27;;;;;;;6.10;4.43;;;;;;;8.00;61.39;97255.97;6215132;23;20024;-76
2022/11/13 08:19:55;;;;;;;8.02;5.13;;;;;;;8.08;62.05;97244.88;6214283;23;20031;-77
2022/11/13 08:22:22;;;;;;;6.35;4.63;;;;;;;8.16;63.18;97243.16;6214874;23;20099;-76
2022/11/13 08:24:52;;;;;;;9.88;5.55;;;;;;;8.27;62.53;97236.88;6214313;23;20032;-77
2022/11/13 08:27:21;;;;;;;5.80;3.58;;;;;;;8.37;62.24;97239.38;6214491;23;20020;-76
2022/11/13 08:29:49;;;;;;;7.78;4.85;;;;;;;8.47;61.58;97226.34;6214418;23;20103;-77
2022/11/13 08:32:21;;;;;;;4.95;4.00;;;;;;;8.59;62.79;97225.94;6214555;23;20021;-76
2022/11/13 08:34:48;;;;;;;4.53;4.07;;;;;;;8.72;62.08;97229.88;6214829;23;20410;-75
2022/11/13 08:37:16;;;;;;;5.53;4.35;;;;;;;8.84;61.23;97220.84;6214875;23;20021;-77
2022/11/13 08:39:43;;;;;;;4.85;3.85;;;;;;;8.97;62.09;97212.63;6214151;23;20027;-76
2022/11/13 08:42:11;;;;;;;5.57;3.85;;;;;;;9.10;61.94;97209.59;6214358;23;20020;-77
2022/11/13 08:44:40;;;;;;;5.90;3.92;;;;;;;9.24;60.24;97204.56;6214562;23;20027;-77
2022/11/13 08:47:07;;;;;;;6.50;3.67;;;;;;;9.39;60.04;97212.59;6214655;23;20075;-76
2022/11/13 08:49:35;;;;;;;4.68;3.55;;;;;;;9.53;59.73;97218.97;6213921;23;20468;-78
2022/11/13 08:52:03;;;;;;;5.63;4.13;;;;;;;9.67;59.18;97217.53;6214541;23;20025;-76
2022/11/13 08:54:30;;;;;;;4.22;3.20;;;;;;;9.81;59.34;97216.88;6214178;23;20400;-76
2022/11/13 08:56:58;;;;;;;5.80;3.85;;;;;;;9.98;59.09;97209.91;6214912;23;20021;-76
2022/11/13 08:59:32;;;;;;;5.82;3.42;;;;;;;10.16;56.71;97206.31;6215085;23;20020;-77
2022/11/13 09:02:01;;;;;;;4.43;3.10;;;;;;;10.28;56.14;97208.41;6215144;23;20031;-77
2022/11/13 09:04:28;;;;;;;6.72;4.57;;;;;;;10.50;55.64;97206.94;6214615;23;20017;-77
2022/11/13 09:06:56;;;;;;;6.53;4.43;;;;;;;10.81;55.16;97200.19;6214331;23;20527;-77
2022/11/13 09:09:24;;;;;;;5.85;3.72;;;;;;;11.14;55.22;97201.69;6213885;23;20029;-76
2022/11/13 09:11:51;;;;;;;4.75;3.47;;;;;;;11.85;53.09;97209.44;6214237;23;20020;-76
2022/11/13 09:14:19;;;;;;;3.63;2.42;;;;;;;13.39;47.78;97199.41;6214206;23;20016;-76
2022/11/13 09:16:46;;;;;;;2.65;2.45;;;;;;;15.37;43.08;97210.75;6214661;23;20039;-76
2022/11/13 09:19:15;;;;;;;4.80;2.63;;;;;;;16.72;39.60;97200.97;6215265;23;20029;-76
2022/11/13 09:21:43;;;;;;;2.15;1.95;;;;;;;17.04;37.66;97209.84;6218244;22;20028;-81
2022/11/13 09:32:58;;;;;;;2.53;2.33;;;;;;;21.22;33.65;97219.69;6224841;23;20082;-80
2022/11/13 09:35:35;;;;;;;1.90;1.80;;;;;;;21.17;31.96;97225.69;6218527;23;20020;-80
2022/11/13 09:38:08;;;;;;;2.20;2.00;;;;;;;19.84;32.49;97220.75;6219567;23;20293;-80
2022/11/13 09:40:43;;;;;;;2.40;2.10;;;;;;;18.32;35.12;97218.69;6220242;23;20533;-80
2022/11/13 09:43:20;;;;;;;6.22;3.60;;;;;;;17.33;35.78;97214.81;6221660;23;20035;-80
2022/11/13 09:45:49;;;;;;;2.15;1.95;;;;;;;16.68;38.47;97220.84;6219847;23;20021;-80
2022/11/13 09:48:24;;;;;;;4.50;2.60;;;;;;;16.30;39.89;97216.22;6215887;23;20012;-80
2022/11/13 09:50:54;;;;;;;3.60;2.33;;;;;;;16.05;39.92;97208.13;6223552;23;20024;-83
2022/11/13 09:53:23;;;;;;;2.72;2.15;;;;;;;15.98;40.07;97200.22;6224074;23;20036;-82
2022/11/13 09:56:03;;;;;;;2.92;1.67;;;;;;;15.91;37.42;97202.03;6224054;23;20104;-82
2022/11/13 09:58:44;;;;;;;2.15;1.70;;;;;;;15.72;38.44;97203.63;6225659;23;20027;-82
2022/11/13 10:01:21;;;;;;;2.58;1.90;;;;;;;15.66;38.97;97209.66;6228860;23;20028;-83
2022/11/13 10:03:58;;;;;;;8.55;6.80;;;;;;;15.66;38.39;97197.31;6225713;23;20334;-83
2022/11/13 10:06:42;;;;;;;4.93;1.92;;;;;;;15.54;37.78;97191.00;6225621;23;20071;-82
2022/11/13 10:09:21;;;;;;;1.70;1.60;;;;;;;15.34;38.38;97185.69;6224599;23;20035;-83
2022/11/13 10:11:54;;;;;;;1.65;1.48;;;;;;;15.36;38.63;97185.50;6224071;23;20066;-82
2022/11/13 10:14:29;;;;;;;1.95;1.60;;;;;;;15.35;38.81;97182.06;6224110;23;20464;-83
2022/11/13 10:17:01;;;;;;;4.18;1.63;;;;;;;15.26;38.33;97193.72;6225676;23;20028;-83
2022/11/13 10:19:37;;;;;;;2.25;1.65;;;;;;;15.23;39.35;97168.66;6226820;23;20048;-83
2022/11/13 10:22:14;;;;;;;2.05;1.60;;;;;;;15.24;39.17;97157.16;6224645;23;20079;-82
2022/11/13 10:25:09;;;;;;;2.00;1.52;;;;;;;15.32;39.19;97163.25;6239885;23;20459;-82
2022/11/13 10:27:37;;;;;;;1.75;1.55;;;;;;;15.43;39.92;97157.41;6242083;23;20000;-83
2022/11/13 10:30:13;;;;;;;2.13;1.65;;;;;;;15.60;38.39;97147.31;6239995;22;20032;-81
2022/11/13 10:32:46;;;;;;;1.63;1.45;;;;;;;15.74;38.86;97149.00;6229596;23;20077;-80
2022/11/13 10:35:35;;;;;;;1.58;1.10;;;;;;;15.86;38.75;97142.13;6226955;23;20027;-80
2022/11/13 10:38:07;;;;;;;3.47;1.33;;;;;;;15.97;39.63;97134.63;6227273;23;20112;-79
2022/11/13 10:43:35;;;;;;;1.27;1.17;;;;;;;16.20;38.62;97131.56;6229359;22;20012;-81
2022/11/13 10:46:05;;;;;;;1.58;1.35;;;;;;;16.29;38.84;97135.63;6221990;23;20027;-81
2022/11/13 10:48:36;;;;;;;1.92;1.83;;;;;;;16.50;39.20;97131.94;6224159;23;20021;-80
2022/11/13 10:51:18;;;;;;;1.70;1.35;;;;;;;16.69;37.69;97130.28;6226309;23;20032;-82
2022/11/13 10:53:48;;;;;;;3.17;1.00;;;;;;;16.79;37.97;97125.38;6224787;23;20092;-80
2022/11/13 10:56:25;;;;;;;1.38;1.20;;;;;;;16.91;36.47;97119.50;6223902;23;20453;-82
2022/11/13 10:59:08;;;;;;;2.08;1.30;;;;;;;16.92;36.29;97115.81;6224801;23;20024;-81
2022/11/13 11:01:37;;;;;;;4.80;1.38;;;;;;;17.07;36.91;97111.09;6226025;23;20496;-81
2022/11/13 11:04:05;;;;;;;1.65;1.55;;;;;;;17.20;36.51;97103.13;6222058;23;20412;-82
2022/11/13 11:06:35;;;;;;;2.40;1.20;;;;;;;17.33;35.79;97104.06;6216578;23;20026;-82
2022/11/13 11:09:42;;;;;;;1.92;1.20;;;;;;;17.48;34.95;97099.31;6218999;23;20028;-82
2022/11/13 11:12:18;;;;;;;1.38;1.17;;;;;;;17.56;36.03;97096.41;6209278;22;21127;-79
2022/11/13 11:15:07;;;;;;;1.80;1.35;;;;;;;17.69;35.33;97090.25;6240260;23;20064;-79
2022/11/13 11:17:55;;;;;;;1.52;1.10;;;;;;;17.84;35.16;97090.75;6239643;22;20032;-78
2022/11/13 12:16:36;;;;;;;1.75;1.52;;;;;;;19.31;34.17;96951.63;6240836;22;20009;-80
2022/11/13 13:31:22;;;;;;;3.50;1.73;;;;;;;16.33;40.55;96899.88;6215780;23;20027;-82
2022/11/13 13:34:43;;;;;;;1.60;1.50;;;;;;;16.28;40.47;96890.00;6243610;22;20072;-79
2022/11/13 13:49:59;;;;;;;2.53;1.77;;;;;;;16.50;41.07;96892.31;6267960;22;20024;-79
2022/11/13 13:55:58;;;;;;;1.73;1.30;;;;;;;16.29;40.73;96882.94;6242107;22;20013;-81
2022/11/13 14:02:21;;;;;;;1.60;1.50;;;;;;;16.17;40.86;96889.84;6242942;23;20008;-80
2022/11/13 14:08:06;;;;;;;1.90;1.50;;;;;;;16.00;41.52;96887.69;6243491;23;20029;-78
2022/11/13 14:10:56;;;;;;;3.35;1.98;;;;;;;15.96;41.63;96891.78;6243001;23;20030;-78
2022/11/13 14:16:36;;;;;;;1.75;1.60;;;;;;;15.77;42.05;96876.88;6242944;22;20021;-78
2022/11/13 14:26:01;;;;;;;1.73;1.63;;;;;;;15.38;43.52;96886.44;6244910;22;20028;-83
2022/11/13 14:56:22;;;;;;;2.83;2.55;;;;;;;14.51;45.50;96854.09;6227128;22;20020;-79
2022/11/13 14:59:33;;;;;;;4.50;3.15;;;;;;;14.52;45.54;96850.44;6242812;23;20016;-83
2022/11/13 15:05:51;;;;;;;3.88;3.25;;;;;;;14.56;46.15;96849.91;6220367;22;20024;-80
2022/11/13 15:28:04;;;;;;;3.97;3.50;;;;;;;14.25;48.11;96837.28;6230121;23;20025;-81
2022/11/13 15:38:36;;;;;;;7.85;5.00;;;;;;;13.96;48.79;96841.88;6227580;22;20051;-82
2022/11/13 15:41:39;;;;;;;9.27;5.10;;;;;;;13.88;49.03;96833.34;6230064;23;20028;-81
2022/11/13 15:44:23;;;;;;;7.60;5.53;;;;;;;13.80;49.26;96836.97;6230717;23;20020;-82
2022/11/13 15:47:25;;;;;;;7.65;5.55;;;;;;;13.70;49.73;96828.66;6230300;23;20027;-81
2022/11/13 15:50:05;;;;;;;6.65;5.22;;;;;;;13.65;50.01;96823.22;6230812;23;20020;-81